sensor_id;sensor_type;location;lat;lon;timestamp;P1;durP1;ratioP1;P2;durP2;ratioP2
60225;SDS011;46090;48.436;11.410;2023-04-24T00:00:14;2.03;;;0.40;;
60225;SDS011;46090;48.436;11.410;2023-04-24T00:02:41;1.05;;;0.20;;
60225;SDS011;46090;48.436;11.410;2023-04-24T00:05:34;2.60;;;0.32;;
60225;SDS011;46090;48.436;11.410;2023-04-24T00:08:00;1.13;;;0.30;;
60225;SDS011;46090;48.436;11.410;2023-04-24T00:10:27;1.58;;;0.25;;
60225;SDS011;46090;48.436;11.410;2023-04-24T00:12:54;2.13;;;0.30;;
60225;SDS011;46090;48.436;11.410;2023-04-24T00:15:20;0.88;;;0.28;;
60225;SDS011;46090;48.436;11.410;2023-04-24T00:17:47;0.93;;;0.20;;
60225;SDS011;46090;48.436;11.410;2023-04-24T00:20:14;1.42;;;0.30;;
60225;SDS011;46090;48.436;11.410;2023-04-24T00:22:41;1.13;;;0.20;;
60225;SDS011;46090;48.436;11.410;2023-04-24T00:25:07;0.65;;;0.20;;
60225;SDS011;46090;48.436;11.410;2023-04-24T00:27:34;1.63;;;0.30;;
60225;SDS011;46090;48.436;11.410;2023-04-24T00:30:03;0.60;;;0.20;;
60225;SDS011;46090;48.436;11.410;2023-04-24T00:32:30;3.13;;;0.30;;
60225;SDS011;46090;48.436;11.410;2023-04-24T00:34:57;1.08;;;0.30;;
60225;SDS011;46090;48.436;11.410;2023-04-24T00:37:23;1.58;;;0.30;;
60225;SDS011;46090;48.436;11.410;2023-04-24T00:39:50;1.10;;;0.28;;
60225;SDS011;46090;48.436;11.410;2023-04-24T00:42:17;0.98;;;0.30;;
60225;SDS011;46090;48.436;11.410;2023-04-24T00:44:43;2.20;;;0.30;;
60225;SDS011;46090;48.436;11.410;2023-04-24T00:47:10;1.80;;;0.32;;
60225;SDS011;46090;48.436;11.410;2023-04-24T00:49:38;1.35;;;0.20;;
60225;SDS011;46090;48.436;11.410;2023-04-24T00:52:05;1.02;;;0.22;;
60225;SDS011;46090;48.436;11.410;2023-04-24T00:54:35;2.72;;;0.30;;
60225;SDS011;46090;48.436;11.410;2023-04-24T00:57:02;2.42;;;0.20;;
60225;SDS011;46090;48.436;11.410;2023-04-24T00:59:29;1.02;;;0.20;;
60225;SDS011;46090;48.436;11.410;2023-04-24T01:01:56;1.40;;;0.20;;
60225;SDS011;46090;48.436;11.410;2023-04-24T01:04:24;1.00;;;0.20;;
60225;SDS011;46090;48.436;11.410;2023-04-24T01:06:51;0.85;;;0.10;;
60225;SDS011;46090;48.436;11.410;2023-04-24T01:09:19;1.58;;;0.20;;
60225;SDS011;46090;48.436;11.410;2023-04-24T01:11:48;1.75;;;0.20;;
60225;SDS011;46090;48.436;11.410;2023-04-24T01:14:16;0.95;;;0.20;;
60225;SDS011;46090;48.436;11.410;2023-04-24T01:16:42;0.95;;;0.17;;
60225;SDS011;46090;48.436;11.410;2023-04-24T01:19:09;2.30;;;0.30;;
60225;SDS011;46090;48.436;11.410;2023-04-24T01:21:37;1.65;;;0.10;;
60225;SDS011;46090;48.436;11.410;2023-04-24T01:24:04;1.00;;;0.22;;
60225;SDS011;46090;48.436;11.410;2023-04-24T01:26:31;1.25;;;0.30;;
60225;SDS011;46090;48.436;11.410;2023-04-24T01:28:58;1.27;;;0.20;;
60225;SDS011;46090;48.436;11.410;2023-04-24T01:31:25;0.73;;;0.15;;
60225;SDS011;46090;48.436;11.410;2023-04-24T01:33:52;0.45;;;0.10;;
60225;SDS011;46090;48.436;11.410;2023-04-24T01:36:20;1.02;;;0.20;;
60225;SDS011;46090;48.436;11.410;2023-04-24T01:38:47;0.65;;;0.20;;
60225;SDS011;46090;48.436;11.410;2023-04-24T01:41:14;1.05;;;0.10;;
60225;SDS011;46090;48.436;11.410;2023-04-24T01:43:43;1.10;;;0.20;;
60225;SDS011;46090;48.436;11.410;2023-04-24T01:46:10;0.90;;;0.20;;
60225;SDS011;46090;48.436;11.410;2023-04-24T01:48:37;3.17;;;0.20;;
60225;SDS011;46090;48.436;11.410;2023-04-24T01:51:04;1.38;;;0.20;;
60225;SDS011;46090;48.436;11.410;2023-04-24T01:53:30;0.77;;;0.10;;
60225;SDS011;46090;48.436;11.410;2023-04-24T01:55:57;0.43;;;0.05;;
60225;SDS011;46090;48.436;11.410;2023-04-24T01:58:24;0.95;;;0.22;;
60225;SDS011;46090;48.436;11.410;2023-04-24T02:00:50;0.52;;;0.10;;
60225;SDS011;46090;48.436;11.410;2023-04-24T02:03:17;1.13;;;0.20;;
60225;SDS011;46090;48.436;11.410;2023-04-24T02:05:44;0.50;;;0.10;;
60225;SDS011;46090;48.436;11.410;2023-04-24T02:08:11;0.90;;;0.20;;
60225;SDS011;46090;48.436;11.410;2023-04-24T02:10:38;0.38;;;0.10;;
60225;SDS011;46090;48.436;11.410;2023-04-24T02:13:04;1.08;;;0.20;;
60225;SDS011;46090;48.436;11.410;2023-04-24T02:15:31;0.40;;;0.10;;
60225;SDS011;46090;48.436;11.410;2023-04-24T02:17:58;1.25;;;0.10;;
60225;SDS011;46090;48.436;11.410;2023-04-24T02:20:24;0.93;;;0.20;;
60225;SDS011;46090;48.436;11.410;2023-04-24T02:22:52;0.65;;;0.10;;
60225;SDS011;46090;48.436;11.410;2023-04-24T02:25:18;0.77;;;0.10;;
60225;SDS011;46090;48.436;11.410;2023-04-24T02:27:45;0.57;;;0.10;;
60225;SDS011;46090;48.436;11.410;2023-04-24T02:30:12;1.77;;;0.20;;
60225;SDS011;46090;48.436;11.410;2023-04-24T02:32:38;0.88;;;0.25;;
60225;SDS011;46090;48.436;11.410;2023-04-24T02:35:09;1.10;;;0.10;;
60225;SDS011;46090;48.436;11.410;2023-04-24T02:37:36;0.60;;;0.10;;
60225;SDS011;46090;48.436;11.410;2023-04-24T02:40:03;0.40;;;0.10;;
60225;SDS011;46090;48.436;11.410;2023-04-24T02:42:32;0.55;;;0.20;;
60225;SDS011;46090;48.436;11.410;2023-04-24T02:44:58;0.60;;;0.10;;
60225;SDS011;46090;48.436;11.410;2023-04-24T02:47:25;0.43;;;0.13;;
60225;SDS011;46090;48.436;11.410;2023-04-24T02:49:51;0.20;;;0.08;;
60225;SDS011;46090;48.436;11.410;2023-04-24T02:52:18;0.43;;;0.13;;
60225;SDS011;46090;48.436;11.410;2023-04-24T02:54:45;0.95;;;0.15;;
60225;SDS011;46090;48.436;11.410;2023-04-24T02:57:11;0.40;;;0.10;;
60225;SDS011;46090;48.436;11.410;2023-04-24T02:59:40;0.50;;;0.10;;
60225;SDS011;46090;48.436;11.410;2023-04-24T03:02:07;1.13;;;0.10;;
60225;SDS011;46090;48.436;11.410;2023-04-24T03:04:34;0.50;;;0.10;;
60225;SDS011;46090;48.436;11.410;2023-04-24T03:07:01;1.13;;;0.20;;
60225;SDS011;46090;48.436;11.410;2023-04-24T03:09:28;0.22;;;0.05;;
60225;SDS011;46090;48.436;11.410;2023-04-24T03:11:54;0.70;;;0.10;;
60225;SDS011;46090;48.436;11.410;2023-04-24T03:14:23;0.50;;;0.10;;
60225;SDS011;46090;48.436;11.410;2023-04-24T03:16:50;1.40;;;0.20;;
60225;SDS011;46090;48.436;11.410;2023-04-24T03:19:16;1.52;;;0.10;;
60225;SDS011;46090;48.436;11.410;2023-04-24T03:21:54;1.60;;;0.13;;
60225;SDS011;46090;48.436;11.410;2023-04-24T03:24:21;1.08;;;0.20;;
60225;SDS011;46090;48.436;11.410;2023-04-24T03:26:49;2.40;;;0.10;;
60225;SDS011;46090;48.436;11.410;2023-04-24T03:29:31;0.93;;;0.20;;
60225;SDS011;46090;48.436;11.410;2023-04-24T03:31:58;0.65;;;0.15;;
60225;SDS011;46090;48.436;11.410;2023-04-24T03:34:25;0.85;;;0.20;;
60225;SDS011;46090;48.436;11.410;2023-04-24T03:36:52;1.35;;;0.13;;
60225;SDS011;46090;48.436;11.410;2023-04-24T03:39:20;1.23;;;0.15;;
60225;SDS011;46090;48.436;11.410;2023-04-24T03:41:52;1.30;;;0.10;;
60225;SDS011;46090;48.436;11.410;2023-04-24T03:44:24;1.25;;;0.10;;
60225;SDS011;46090;48.436;11.410;2023-04-24T03:46:50;0.82;;;0.10;;
60225;SDS011;46090;48.436;11.410;2023-04-24T03:49:20;1.05;;;0.10;;
60225;SDS011;46090;48.436;11.410;2023-04-24T03:51:47;0.45;;;0.05;;
60225;SDS011;46090;48.436;11.410;2023-04-24T03:54:20;0.43;;;0.10;;
60225;SDS011;46090;48.436;11.410;2023-04-24T03:56:49;0.35;;;0.10;;
60225;SDS011;46090;48.436;11.410;2023-04-24T03:59:15;0.47;;;0.13;;
60225;SDS011;46090;48.436;11.410;2023-04-24T04:01:46;0.30;;;0.17;;
60225;SDS011;46090;48.436;11.410;2023-04-24T04:04:15;0.80;;;0.30;;
60225;SDS011;46090;48.436;11.410;2023-04-24T04:06:43;0.30;;;0.00;;
60225;SDS011;46090;48.436;11.410;2023-04-24T04:09:10;0.32;;;0.10;;
60225;SDS011;46090;48.436;11.410;2023-04-24T04:11:37;0.88;;;0.10;;
60225;SDS011;46090;48.436;11.410;2023-04-24T04:14:04;1.90;;;0.10;;
60225;SDS011;46090;48.436;11.410;2023-04-24T04:16:33;0.50;;;0.10;;
60225;SDS011;46090;48.436;11.410;2023-04-24T04:19:02;1.55;;;0.20;;
60225;SDS011;46090;48.436;11.410;2023-04-24T04:21:29;0.50;;;0.10;;
60225;SDS011;46090;48.436;11.410;2023-04-24T04:24:20;1.38;;;0.10;;
60225;SDS011;46090;48.436;11.410;2023-04-24T04:26:49;0.30;;;0.10;;
60225;SDS011;46090;48.436;11.410;2023-04-24T04:29:23;0.57;;;0.10;;
60225;SDS011;46090;48.436;11.410;2023-04-24T04:31:50;0.95;;;0.25;;
60225;SDS011;46090;48.436;11.410;2023-04-24T04:34:17;0.22;;;0.10;;
60225;SDS011;46090;48.436;11.410;2023-04-24T04:36:45;1.13;;;0.10;;
60225;SDS011;46090;48.436;11.410;2023-04-24T04:39:26;0.82;;;0.10;;
60225;SDS011;46090;48.436;11.410;2023-04-24T04:41:58;0.30;;;0.00;;
60225;SDS011;46090;48.436;11.410;2023-04-24T04:44:33;0.77;;;0.20;;
60225;SDS011;46090;48.436;11.410;2023-04-24T04:47:03;0.68;;;0.13;;
60225;SDS011;46090;48.436;11.410;2023-04-24T04:49:34;0.47;;;0.10;;
60225;SDS011;46090;48.436;11.410;2023-04-24T04:52:02;7.32;;;0.98;;
60225;SDS011;46090;48.436;11.410;2023-04-24T04:54:30;1.23;;;0.10;;
60225;SDS011;46090;48.436;11.410;2023-04-24T04:56:57;5.43;;;0.20;;
60225;SDS011;46090;48.436;11.410;2023-04-24T04:59:24;1.77;;;0.20;;
60225;SDS011;46090;48.436;11.410;2023-04-24T05:01:57;0.55;;;0.10;;
60225;SDS011;46090;48.436;11.410;2023-04-24T05:04:24;1.75;;;0.10;;
60225;SDS011;46090;48.436;11.410;2023-04-24T05:06:51;2.33;;;0.15;;
60225;SDS011;46090;48.436;11.410;2023-04-24T05:09:19;2.33;;;0.20;;
60225;SDS011;46090;48.436;11.410;2023-04-24T05:11:51;0.95;;;0.10;;
60225;SDS011;46090;48.436;11.410;2023-04-24T05:14:17;4.28;;;0.20;;
60225;SDS011;46090;48.436;11.410;2023-04-24T05:16:45;4.40;;;0.38;;
60225;SDS011;46090;48.436;11.410;2023-04-24T05:19:13;4.38;;;0.30;;
60225;SDS011;46090;48.436;11.410;2023-04-24T05:21:41;2.38;;;0.15;;
60225;SDS011;46090;48.436;11.410;2023-04-24T05:24:09;4.85;;;0.30;;
60225;SDS011;46090;48.436;11.410;2023-04-24T05:26:54;4.57;;;0.40;;
60225;SDS011;46090;48.436;11.410;2023-04-24T05:29:26;7.25;;;0.20;;
60225;SDS011;46090;48.436;11.410;2023-04-24T05:31:53;7.40;;;0.30;;
60225;SDS011;46090;48.436;11.410;2023-04-24T05:34:21;4.32;;;0.40;;
60225;SDS011;46090;48.436;11.410;2023-04-24T05:36:52;3.47;;;0.20;;
60225;SDS011;46090;48.436;11.410;2023-04-24T05:39:19;5.88;;;0.45;;
60225;SDS011;46090;48.436;11.410;2023-04-24T05:41:46;5.65;;;0.32;;
60225;SDS011;46090;48.436;11.410;2023-04-24T05:44:13;9.77;;;0.60;;
60225;SDS011;46090;48.436;11.410;2023-04-24T05:46:41;7.85;;;0.75;;
60225;SDS011;46090;48.436;11.410;2023-04-24T05:49:09;2.28;;;0.30;;
60225;SDS011;46090;48.436;11.410;2023-04-24T05:51:36;4.70;;;0.35;;
60225;SDS011;46090;48.436;11.410;2023-04-24T05:54:03;4.20;;;0.20;;
60225;SDS011;46090;48.436;11.410;2023-04-24T05:56:30;3.75;;;0.25;;
60225;SDS011;46090;48.436;11.410;2023-04-24T05:58:58;9.60;;;0.50;;
60225;SDS011;46090;48.436;11.410;2023-04-24T06:01:25;6.20;;;0.28;;
60225;SDS011;46090;48.436;11.410;2023-04-24T06:04:02;5.32;;;0.38;;
60225;SDS011;46090;48.436;11.410;2023-04-24T06:06:30;5.30;;;0.25;;
60225;SDS011;46090;48.436;11.410;2023-04-24T06:08:57;2.78;;;0.20;;
60225;SDS011;46090;48.436;11.410;2023-04-24T06:11:25;7.22;;;0.43;;
60225;SDS011;46090;48.436;11.410;2023-04-24T06:13:52;6.43;;;0.95;;
60225;SDS011;46090;48.436;11.410;2023-04-24T06:16:51;7.18;;;0.45;;
60225;SDS011;46090;48.436;11.410;2023-04-24T06:19:29;3.17;;;0.43;;
60225;SDS011;46090;48.436;11.410;2023-04-24T06:21:56;5.00;;;0.50;;
60225;SDS011;46090;48.436;11.410;2023-04-24T06:24:26;19.30;;;1.17;;
60225;SDS011;46090;48.436;11.410;2023-04-24T06:26:53;9.82;;;1.33;;
60225;SDS011;46090;48.436;11.410;2023-04-24T06:29:20;10.38;;;1.23;;
60225;SDS011;46090;48.436;11.410;2023-04-24T06:31:47;8.98;;;1.13;;
60225;SDS011;46090;48.436;11.410;2023-04-24T06:34:14;14.60;;;1.08;;
60225;SDS011;46090;48.436;11.410;2023-04-24T06:36:40;7.72;;;0.93;;
60225;SDS011;46090;48.436;11.410;2023-04-24T06:39:07;7.07;;;0.70;;
60225;SDS011;46090;48.436;11.410;2023-04-24T06:41:34;7.18;;;0.55;;
60225;SDS011;46090;48.436;11.410;2023-04-24T06:44:01;7.10;;;0.55;;
60225;SDS011;46090;48.436;11.410;2023-04-24T06:46:27;16.40;;;1.02;;
60225;SDS011;46090;48.436;11.410;2023-04-24T06:48:54;3.50;;;0.30;;
60225;SDS011;46090;48.436;11.410;2023-04-24T06:51:24;4.75;;;0.30;;
60225;SDS011;46090;48.436;11.410;2023-04-24T06:53:52;2.95;;;0.30;;
60225;SDS011;46090;48.436;11.410;2023-04-24T06:56:19;7.25;;;0.35;;
60225;SDS011;46090;48.436;11.410;2023-04-24T06:58:46;5.93;;;0.57;;
60225;SDS011;46090;48.436;11.410;2023-04-24T07:01:13;8.00;;;0.60;;
60225;SDS011;46090;48.436;11.410;2023-04-24T07:03:39;4.38;;;0.30;;
60225;SDS011;46090;48.436;11.410;2023-04-24T07:06:06;4.22;;;0.40;;
60225;SDS011;46090;48.436;11.410;2023-04-24T07:08:34;3.63;;;0.32;;
60225;SDS011;46090;48.436;11.410;2023-04-24T07:11:02;5.20;;;0.63;;
60225;SDS011;46090;48.436;11.410;2023-04-24T07:13:28;2.75;;;0.55;;
60225;SDS011;46090;48.436;11.410;2023-04-24T07:15:55;5.10;;;0.68;;
60225;SDS011;46090;48.436;11.410;2023-04-24T07:18:22;4.35;;;0.40;;
60225;SDS011;46090;48.436;11.410;2023-04-24T07:20:49;2.90;;;0.25;;
60225;SDS011;46090;48.436;11.410;2023-04-24T07:23:19;4.25;;;0.50;;
60225;SDS011;46090;48.436;11.410;2023-04-24T07:25:45;7.32;;;0.38;;
60225;SDS011;46090;48.436;11.410;2023-04-24T07:28:13;6.65;;;0.70;;
60225;SDS011;46090;48.436;11.410;2023-04-24T07:30:39;13.65;;;0.95;;
60225;SDS011;46090;48.436;11.410;2023-04-24T07:33:06;4.65;;;0.40;;
60225;SDS011;46090;48.436;11.410;2023-04-24T07:35:33;5.30;;;0.43;;
60225;SDS011;46090;48.436;11.410;2023-04-24T07:38:00;4.35;;;0.40;;
60225;SDS011;46090;48.436;11.410;2023-04-24T07:40:27;2.55;;;0.40;;
60225;SDS011;46090;48.436;11.410;2023-04-24T07:42:54;3.38;;;0.50;;
60225;SDS011;46090;48.436;11.410;2023-04-24T07:45:20;3.55;;;0.30;;
60225;SDS011;46090;48.436;11.410;2023-04-24T07:47:49;7.88;;;0.40;;
60225;SDS011;46090;48.436;11.410;2023-04-24T07:50:16;6.03;;;0.40;;
60225;SDS011;46090;48.436;11.410;2023-04-24T07:52:43;5.85;;;0.30;;
60225;SDS011;46090;48.436;11.410;2023-04-24T07:55:10;2.90;;;0.45;;
60225;SDS011;46090;48.436;11.410;2023-04-24T07:57:36;3.00;;;0.20;;
60225;SDS011;46090;48.436;11.410;2023-04-24T08:00:04;6.63;;;0.32;;
60225;SDS011;46090;48.436;11.410;2023-04-24T08:02:36;3.67;;;0.40;;
60225;SDS011;46090;48.436;11.410;2023-04-24T08:05:03;4.20;;;0.30;;
60225;SDS011;46090;48.436;11.410;2023-04-24T08:07:30;3.10;;;0.20;;
60225;SDS011;46090;48.436;11.410;2023-04-24T08:09:57;2.75;;;0.30;;
60225;SDS011;46090;48.436;11.410;2023-04-24T08:12:25;2.50;;;0.25;;
60225;SDS011;46090;48.436;11.410;2023-04-24T08:14:52;7.20;;;0.40;;
60225;SDS011;46090;48.436;11.410;2023-04-24T08:17:18;3.50;;;0.32;;
60225;SDS011;46090;48.436;11.410;2023-04-24T08:19:45;2.63;;;0.20;;
60225;SDS011;46090;48.436;11.410;2023-04-24T08:22:17;4.28;;;0.57;;
60225;SDS011;46090;48.436;11.410;2023-04-24T08:24:43;5.88;;;0.50;;
60225;SDS011;46090;48.436;11.410;2023-04-24T08:27:10;7.05;;;0.68;;
60225;SDS011;46090;48.436;11.410;2023-04-24T08:29:37;4.75;;;0.30;;
60225;SDS011;46090;48.436;11.410;2023-04-24T08:32:03;6.00;;;0.30;;
60225;SDS011;46090;48.436;11.410;2023-04-24T08:34:30;6.55;;;0.88;;
60225;SDS011;46090;48.436;11.410;2023-04-24T08:36:56;4.25;;;0.50;;
60225;SDS011;46090;48.436;11.410;2023-04-24T08:39:23;6.95;;;0.40;;
60225;SDS011;46090;48.436;11.410;2023-04-24T08:41:50;5.28;;;0.68;;
60225;SDS011;46090;48.436;11.410;2023-04-24T08:44:17;7.65;;;0.80;;
60225;SDS011;46090;48.436;11.410;2023-04-24T08:46:44;8.35;;;0.50;;
60225;SDS011;46090;48.436;11.410;2023-04-24T08:49:13;4.13;;;0.50;;
60225;SDS011;46090;48.436;11.410;2023-04-24T08:51:42;3.10;;;0.25;;
60225;SDS011;46090;48.436;11.410;2023-04-24T08:54:11;4.88;;;0.40;;
60225;SDS011;46090;48.436;11.410;2023-04-24T08:56:38;4.50;;;0.45;;
60225;SDS011;46090;48.436;11.410;2023-04-24T08:59:06;3.80;;;0.45;;
60225;SDS011;46090;48.436;11.410;2023-04-24T09:01:33;3.72;;;0.40;;
60225;SDS011;46090;48.436;11.410;2023-04-24T09:04:01;1.98;;;0.30;;
60225;SDS011;46090;48.436;11.410;2023-04-24T09:06:29;5.35;;;0.57;;
60225;SDS011;46090;48.436;11.410;2023-04-24T09:08:58;6.18;;;0.40;;
60225;SDS011;46090;48.436;11.410;2023-04-24T09:11:26;5.03;;;0.68;;
60225;SDS011;46090;48.436;11.410;2023-04-24T09:13:54;3.65;;;0.43;;
60225;SDS011;46090;48.436;11.410;2023-04-24T09:16:21;10.20;;;0.40;;
60225;SDS011;46090;48.436;11.410;2023-04-24T09:18:51;4.40;;;0.32;;
60225;SDS011;46090;48.436;11.410;2023-04-24T09:21:19;4.43;;;0.60;;
60225;SDS011;46090;48.436;11.410;2023-04-24T09:23:47;3.42;;;0.20;;
60225;SDS011;46090;48.436;11.410;2023-04-24T09:26:24;5.22;;;0.28;;
60225;SDS011;46090;48.436;11.410;2023-04-24T09:28:50;5.53;;;0.30;;
60225;SDS011;46090;48.436;11.410;2023-04-24T09:31:18;2.85;;;0.20;;
60225;SDS011;46090;48.436;11.410;2023-04-24T09:33:54;5.38;;;0.55;;
60225;SDS011;46090;48.436;11.410;2023-04-24T09:36:34;6.05;;;0.43;;
60225;SDS011;46090;48.436;11.410;2023-04-24T09:39:06;4.07;;;0.32;;
60225;SDS011;46090;48.436;11.410;2023-04-24T09:44:36;1.70;;;0.20;;
60225;SDS011;46090;48.436;11.410;2023-04-24T09:47:01;4.35;;;0.30;;
60225;SDS011;46090;48.436;11.410;2023-04-24T09:49:29;2.00;;;0.30;;
60225;SDS011;46090;48.436;11.410;2023-04-24T09:52:04;4.35;;;0.50;;
60225;SDS011;46090;48.436;11.410;2023-04-24T09:54:31;2.38;;;0.25;;
60225;SDS011;46090;48.436;11.410;2023-04-24T09:56:59;5.55;;;0.30;;
60225;SDS011;46090;48.436;11.410;2023-04-24T09:59:28;7.45;;;0.45;;
60225;SDS011;46090;48.436;11.410;2023-04-24T10:01:55;2.05;;;0.17;;
60225;SDS011;46090;48.436;11.410;2023-04-24T10:04:23;1.50;;;0.20;;
60225;SDS011;46090;48.436;11.410;2023-04-24T10:06:52;3.17;;;0.50;;
60225;SDS011;46090;48.436;11.410;2023-04-24T10:09:21;3.65;;;0.40;;
60225;SDS011;46090;48.436;11.410;2023-04-24T10:11:49;3.30;;;0.35;;
60225;SDS011;46090;48.436;11.410;2023-04-24T10:14:18;2.60;;;0.22;;
60225;SDS011;46090;48.436;11.410;2023-04-24T10:16:54;4.80;;;0.35;;
60225;SDS011;46090;48.436;11.410;2023-04-24T10:19:22;4.70;;;0.68;;
60225;SDS011;46090;48.436;11.410;2023-04-24T10:21:52;4.35;;;0.20;;
60225;SDS011;46090;48.436;11.410;2023-04-24T10:24:18;1.73;;;0.20;;
60225;SDS011;46090;48.436;11.410;2023-04-24T10:26:48;2.90;;;0.20;;
60225;SDS011;46090;48.436;11.410;2023-04-24T10:29:16;3.55;;;0.40;;
60225;SDS011;46090;48.436;11.410;2023-04-24T10:31:46;3.17;;;0.40;;
60225;SDS011;46090;48.436;11.410;2023-04-24T10:34:14;3.40;;;0.43;;
60225;SDS011;46090;48.436;11.410;2023-04-24T10:36:43;2.10;;;0.30;;
60225;SDS011;46090;48.436;11.410;2023-04-24T10:39:13;3.58;;;0.20;;
60225;SDS011;46090;48.436;11.410;2023-04-24T10:41:41;6.82;;;0.77;;
60225;SDS011;46090;48.436;11.410;2023-04-24T10:46:36;7.60;;;0.40;;
60225;SDS011;46090;48.436;11.410;2023-04-24T10:49:04;3.78;;;0.30;;
60225;SDS011;46090;48.436;11.410;2023-04-24T10:51:48;1.50;;;0.25;;
60225;SDS011;46090;48.436;11.410;2023-04-24T10:54:44;6.32;;;0.50;;
60225;SDS011;46090;48.436;11.410;2023-04-24T10:59:47;4.25;;;0.30;;
60225;SDS011;46090;48.436;11.410;2023-04-24T11:02:18;2.92;;;0.20;;
60225;SDS011;46090;48.436;11.410;2023-04-24T11:04:45;3.05;;;0.30;;
60225;SDS011;46090;48.436;11.410;2023-04-24T11:07:12;4.90;;;0.40;;
60225;SDS011;46090;48.436;11.410;2023-04-24T11:09:39;2.40;;;0.20;;
60225;SDS011;46090;48.436;11.410;2023-04-24T11:12:10;2.47;;;0.25;;
60225;SDS011;46090;48.436;11.410;2023-04-24T11:17:38;2.92;;;0.30;;
60225;SDS011;46090;48.436;11.410;2023-04-24T11:20:07;5.10;;;0.40;;
60225;SDS011;46090;48.436;11.410;2023-04-24T11:22:53;2.83;;;0.40;;
60225;SDS011;46090;48.436;11.410;2023-04-24T11:25:21;4.88;;;0.47;;
60225;SDS011;46090;48.436;11.410;2023-04-24T11:27:49;6.43;;;0.65;;
60225;SDS011;46090;48.436;11.410;2023-04-24T11:30:20;2.95;;;0.30;;
60225;SDS011;46090;48.436;11.410;2023-04-24T11:32:47;1.00;;;0.30;;
60225;SDS011;46090;48.436;11.410;2023-04-24T11:35:17;3.80;;;0.22;;
60225;SDS011;46090;48.436;11.410;2023-04-24T11:37:45;6.57;;;0.40;;
60225;SDS011;46090;48.436;11.410;2023-04-24T11:40:36;1.23;;;0.10;;
60225;SDS011;46090;48.436;11.410;2023-04-24T11:43:03;4.22;;;0.40;;
60225;SDS011;46090;48.436;11.410;2023-04-24T11:45:33;2.10;;;0.15;;
60225;SDS011;46090;48.436;11.410;2023-04-24T11:48:00;2.25;;;0.10;;
60225;SDS011;46090;48.436;11.410;2023-04-24T11:50:27;1.52;;;0.17;;
60225;SDS011;46090;48.436;11.410;2023-04-24T11:52:54;2.53;;;0.25;;
60225;SDS011;46090;48.436;11.410;2023-04-24T11:57:50;1.80;;;0.30;;
60225;SDS011;46090;48.436;11.410;2023-04-24T12:00:29;2.25;;;0.20;;
60225;SDS011;46090;48.436;11.410;2023-04-24T12:03:07;2.40;;;0.15;;
60225;SDS011;46090;48.436;11.410;2023-04-24T12:05:35;1.20;;;0.17;;
60225;SDS011;46090;48.436;11.410;2023-04-24T12:08:02;1.10;;;0.10;;
60225;SDS011;46090;48.436;11.410;2023-04-24T12:10:29;1.90;;;0.10;;
60225;SDS011;46090;48.436;11.410;2023-04-24T12:12:57;1.80;;;0.10;;
60225;SDS011;46090;48.436;11.410;2023-04-24T12:15:25;1.35;;;0.22;;
60225;SDS011;46090;48.436;11.410;2023-04-24T12:17:52;0.75;;;0.10;;
60225;SDS011;46090;48.436;11.410;2023-04-24T12:20:26;3.05;;;0.20;;
60225;SDS011;46090;48.436;11.410;2023-04-24T12:22:55;2.03;;;0.10;;
60225;SDS011;46090;48.436;11.410;2023-04-24T12:25:23;3.25;;;0.20;;
60225;SDS011;46090;48.436;11.410;2023-04-24T12:27:55;2.97;;;0.30;;
60225;SDS011;46090;48.436;11.410;2023-04-24T12:30:32;2.25;;;0.22;;
60225;SDS011;46090;48.436;11.410;2023-04-24T12:33:06;3.58;;;0.20;;
60225;SDS011;46090;48.436;11.410;2023-04-24T12:35:33;2.55;;;0.45;;
60225;SDS011;46090;48.436;11.410;2023-04-24T12:38:11;2.35;;;0.40;;
60225;SDS011;46090;48.436;11.410;2023-04-24T12:40:40;2.47;;;0.10;;
60225;SDS011;46090;48.436;11.410;2023-04-24T12:45:41;2.78;;;0.40;;
60225;SDS011;46090;48.436;11.410;2023-04-24T12:48:08;2.95;;;0.30;;
60225;SDS011;46090;48.436;11.410;2023-04-24T12:50:35;3.13;;;0.30;;
60225;SDS011;46090;48.436;11.410;2023-04-24T12:53:01;5.07;;;0.20;;
60225;SDS011;46090;48.436;11.410;2023-04-24T12:55:28;1.70;;;0.20;;
60225;SDS011;46090;48.436;11.410;2023-04-24T12:57:55;3.10;;;0.32;;
60225;SDS011;46090;48.436;11.410;2023-04-24T13:00:22;2.05;;;0.20;;
60225;SDS011;46090;48.436;11.410;2023-04-24T13:02:49;0.60;;;0.15;;
60225;SDS011;46090;48.436;11.410;2023-04-24T13:05:16;2.15;;;0.28;;
60225;SDS011;46090;48.436;11.410;2023-04-24T13:07:42;1.70;;;0.10;;
60225;SDS011;46090;48.436;11.410;2023-04-24T13:10:09;2.65;;;0.20;;
60225;SDS011;46090;48.436;11.410;2023-04-24T13:12:36;3.50;;;0.28;;
60225;SDS011;46090;48.436;11.410;2023-04-24T13:15:03;1.15;;;0.20;;
60225;SDS011;46090;48.436;11.410;2023-04-24T13:17:30;0.77;;;0.20;;
60225;SDS011;46090;48.436;11.410;2023-04-24T13:19:57;0.90;;;0.10;;
60225;SDS011;46090;48.436;11.410;2023-04-24T13:22:23;1.35;;;0.20;;
60225;SDS011;46090;48.436;11.410;2023-04-24T13:24:50;1.25;;;0.20;;
60225;SDS011;46090;48.436;11.410;2023-04-24T13:27:17;3.28;;;0.13;;
60225;SDS011;46090;48.436;11.410;2023-04-24T13:29:45;2.22;;;0.15;;
60225;SDS011;46090;48.436;11.410;2023-04-24T13:32:12;2.08;;;0.40;;
60225;SDS011;46090;48.436;11.410;2023-04-24T13:34:39;1.90;;;0.22;;
60225;SDS011;46090;48.436;11.410;2023-04-24T13:37:05;2.28;;;0.20;;
60225;SDS011;46090;48.436;11.410;2023-04-24T13:39:34;2.58;;;0.30;;
60225;SDS011;46090;48.436;11.410;2023-04-24T13:42:01;1.35;;;0.20;;
60225;SDS011;46090;48.436;11.410;2023-04-24T13:44:30;1.55;;;0.20;;
60225;SDS011;46090;48.436;11.410;2023-04-24T13:46:57;3.63;;;0.28;;
60225;SDS011;46090;48.436;11.410;2023-04-24T13:49:24;0.98;;;0.13;;
60225;SDS011;46090;48.436;11.410;2023-04-24T13:51:52;0.70;;;0.20;;
60225;SDS011;46090;48.436;11.410;2023-04-24T13:54:19;1.20;;;0.22;;
60225;SDS011;46090;48.436;11.410;2023-04-24T13:56:46;1.73;;;0.20;;
60225;SDS011;46090;48.436;11.410;2023-04-24T13:59:13;2.10;;;0.10;;
60225;SDS011;46090;48.436;11.410;2023-04-24T14:01:39;3.30;;;0.28;;
60225;SDS011;46090;48.436;11.410;2023-04-24T14:04:06;0.68;;;0.10;;
60225;SDS011;46090;48.436;11.410;2023-04-24T14:06:33;1.02;;;0.20;;
60225;SDS011;46090;48.436;11.410;2023-04-24T14:09:00;1.17;;;0.20;;
60225;SDS011;46090;48.436;11.410;2023-04-24T14:11:26;1.17;;;0.30;;
60225;SDS011;46090;48.436;11.410;2023-04-24T14:13:54;2.90;;;0.13;;
60225;SDS011;46090;48.436;11.410;2023-04-24T14:16:22;2.80;;;0.30;;
60225;SDS011;46090;48.436;11.410;2023-04-24T14:18:49;0.73;;;0.10;;
60225;SDS011;46090;48.436;11.410;2023-04-24T14:21:16;1.92;;;0.30;;
60225;SDS011;46090;48.436;11.410;2023-04-24T14:23:43;1.35;;;0.20;;
60225;SDS011;46090;48.436;11.410;2023-04-24T14:26:10;2.28;;;0.30;;
60225;SDS011;46090;48.436;11.410;2023-04-24T14:28:37;4.45;;;0.55;;
60225;SDS011;46090;48.436;11.410;2023-04-24T14:31:03;2.45;;;0.22;;
60225;SDS011;46090;48.436;11.410;2023-04-24T14:33:30;1.38;;;0.22;;
60225;SDS011;46090;48.436;11.410;2023-04-24T14:35:57;1.13;;;0.20;;
60225;SDS011;46090;48.436;11.410;2023-04-24T14:38:24;1.98;;;0.30;;
60225;SDS011;46090;48.436;11.410;2023-04-24T14:40:51;1.08;;;0.17;;
60225;SDS011;46090;48.436;11.410;2023-04-24T14:43:32;3.13;;;0.20;;
60225;SDS011;46090;48.436;11.410;2023-04-24T14:46:01;2.92;;;0.30;;
60225;SDS011;46090;48.436;11.410;2023-04-24T14:48:28;1.40;;;0.20;;
60225;SDS011;46090;48.436;11.410;2023-04-24T14:50:55;1.80;;;0.20;;
60225;SDS011;46090;48.436;11.410;2023-04-24T14:53:22;1.95;;;0.20;;
60225;SDS011;46090;48.436;11.410;2023-04-24T14:55:48;1.60;;;0.20;;